createdAt,value
2022-08-10T00:00:57.577Z,2.00
2022-08-10T00:03:28.042Z,2.15
2022-08-10T00:05:56.713Z,1.90
2022-08-10T00:08:27.912Z,1.95
2022-08-10T00:10:56.474Z,2.20
2022-08-10T00:13:26.961Z,2.20
2022-08-10T00:15:55.426Z,1.92
2022-08-10T00:18:35.835Z,2.17
2022-08-10T00:21:07.386Z,2.20
2022-08-10T00:23:35.541Z,1.98
2022-08-10T00:26:02.889Z,1.85
2022-08-10T00:28:30.222Z,1.92
2022-08-10T00:30:57.579Z,2.03
2022-08-10T00:33:24.951Z,2.15
2022-08-10T00:35:52.362Z,2.15
2022-08-10T00:38:19.718Z,1.80
2022-08-10T00:40:47.035Z,2.10
2022-08-10T00:43:14.391Z,2.08
2022-08-10T00:45:42.017Z,2.03
2022-08-10T00:48:10.637Z,2.05
2022-08-10T00:50:38.209Z,2.00
2022-08-10T00:53:06.011Z,2.50
2022-08-10T00:55:33.710Z,2.08
2022-08-10T00:58:21.646Z,2.00
2022-08-10T01:00:49.158Z,1.98
2022-08-10T01:03:16.559Z,2.63
2022-08-10T01:06:19.339Z,2.00
2022-08-10T01:08:56.175Z,2.05
2022-08-10T01:12:37.695Z,2.30
2022-08-10T01:14:26.076Z,2.30
2022-08-10T01:17:01.386Z,1.90
2022-08-10T01:19:52.676Z,2.10
2022-08-10T01:22:40.266Z,2.17
2022-08-10T01:25:16.801Z,2.42
2022-08-10T01:27:44.317Z,2.38
2022-08-10T01:30:15.732Z,2.00
2022-08-10T01:32:49.446Z,2.13
2022-08-10T01:35:34.101Z,2.00
2022-08-10T01:38:07.007Z,2.40
2022-08-10T01:40:36.554Z,2.30
2022-08-10T01:43:08.450Z,2.10
2022-08-10T01:45:45.278Z,2.10
2022-08-10T01:48:34.208Z,2.40
2022-08-10T01:51:03.905Z,2.20
2022-08-10T01:53:40.939Z,2.10
2022-08-10T01:56:09.056Z,1.98
2022-08-10T01:58:37.641Z,2.40
2022-08-10T02:01:05.354Z,2.47
2022-08-10T02:03:33.416Z,2.40
2022-08-10T02:06:02.230Z,2.20
2022-08-10T02:08:30.102Z,2.30
2022-08-10T02:10:58.333Z,2.50
2022-08-10T02:13:27.153Z,2.50
2022-08-10T02:16:01.680Z,2.63
2022-08-10T02:18:30.611Z,3.55
2022-08-10T02:20:58.811Z,2.40
2022-08-10T02:23:28.568Z,2.13
2022-08-10T02:25:57.092Z,2.40
2022-08-10T02:28:29.902Z,2.30
2022-08-10T02:30:58.889Z,2.63
2022-08-10T02:33:27.667Z,2.20
2022-08-10T02:35:56.191Z,2.35
2022-08-10T02:38:58.964Z,2.10
2022-08-10T02:45:12.427Z,2.72
2022-08-10T02:45:19.600Z,2.25
2022-08-10T02:47:29.613Z,2.58
2022-08-10T02:50:35.666Z,2.70
2022-08-10T02:53:02.969Z,2.63
2022-08-10T02:55:39.779Z,2.40
2022-08-10T02:58:16.833Z,2.60
2022-08-10T03:00:48.130Z,2.92
2022-08-10T03:03:26.942Z,2.30
2022-08-10T03:06:01.796Z,2.30
2022-08-10T03:08:31.756Z,2.78
2022-08-10T03:11:01.687Z,2.42
2022-08-10T03:13:30.058Z,2.72
2022-08-10T03:15:58.246Z,2.42
2022-08-10T03:18:25.897Z,2.75
2022-08-10T03:20:54.480Z,2.80
2022-08-10T03:23:24.137Z,3.15
2022-08-10T03:25:54.989Z,2.65
2022-08-10T03:28:27.849Z,2.85
2022-08-10T03:30:56.228Z,3.15
2022-08-10T03:33:25.121Z,2.50
2022-08-10T03:36:43.935Z,2.75
2022-08-10T03:38:46.427Z,3.30
2022-08-10T03:41:16.251Z,3.20
2022-08-10T03:43:48.026Z,2.95
2022-08-10T03:46:16.286Z,3.00
2022-08-10T03:48:49.090Z,2.47
2022-08-10T03:51:18.384Z,2.90
2022-08-10T03:54:04.335Z,2.80
2022-08-10T03:56:34.997Z,2.78
2022-08-10T03:59:02.645Z,2.83
2022-08-10T04:02:41.886Z,2.72
2022-08-10T04:04:23.677Z,2.67
2022-08-10T04:06:54.833Z,3.33
2022-08-10T04:09:23.185Z,2.85
2022-08-10T04:11:50.864Z,3.03
2022-08-10T04:14:48.963Z,3.08
2022-08-10T04:17:08.660Z,3.50
2022-08-10T04:19:45.024Z,4.05
2022-08-10T04:22:19.714Z,3.05
2022-08-10T04:24:49.016Z,2.88
2022-08-10T04:27:16.672Z,2.80
2022-08-10T04:29:44.562Z,2.55
2022-08-10T04:32:12.853Z,3.40
2022-08-10T04:34:41.834Z,2.95
2022-08-10T04:37:10.652Z,3.10
2022-08-10T04:39:38.643Z,3.13
2022-08-10T04:42:06.993Z,3.10
2022-08-10T04:44:34.623Z,2.90
2022-08-10T04:47:02.026Z,2.63
2022-08-10T04:49:55.904Z,3.10
2022-08-10T04:52:17.463Z,3.60
2022-08-10T04:54:44.791Z,4.65
2022-08-10T04:57:12.160Z,3.90
2022-08-10T04:59:39.510Z,3.35
2022-08-10T05:02:12.504Z,3.47
2022-08-10T05:04:54.214Z,2.90
2022-08-10T05:07:21.523Z,2.95
2022-08-10T05:10:03.755Z,3.00
2022-08-10T05:12:38.241Z,2.95
2022-08-10T05:15:07.154Z,3.33
2022-08-10T05:17:35.236Z,3.88
2022-08-10T05:20:06.888Z,4.90
2022-08-10T05:22:39.639Z,3.30
2022-08-10T05:25:08.728Z,3.10
2022-08-10T05:27:36.078Z,3.28
2022-08-10T05:30:04.295Z,3.20
2022-08-10T05:32:55.257Z,3.45
2022-08-10T05:35:20.278Z,3.28
2022-08-10T05:38:09.173Z,3.13
2022-08-10T05:40:37.950Z,2.65
2022-08-10T05:43:05.575Z,2.95
2022-08-10T05:45:32.870Z,3.50
2022-08-10T05:48:57.401Z,3.05
2022-08-10T05:50:48.101Z,3.42
2022-08-10T05:54:01.104Z,3.08
2022-08-10T05:56:04.005Z,3.05
2022-08-10T05:58:31.308Z,3.15
2022-08-10T06:01:00.596Z,3.20
2022-08-10T06:03:33.172Z,3.45
2022-08-10T06:06:01.691Z,2.88
2022-08-10T06:08:31.846Z,2.63
2022-08-10T06:12:25.620Z,3.33
2022-08-10T06:14:15.773Z,3.03
2022-08-10T06:16:44.348Z,2.90
2022-08-10T06:19:15.039Z,3.13
2022-08-10T06:22:00.527Z,2.58
2022-08-10T06:24:32.799Z,3.65
2022-08-10T06:27:00.812Z,3.03
2022-08-10T06:29:30.439Z,3.17
2022-08-10T06:31:58.056Z,2.70
2022-08-10T06:34:26.844Z,2.53
2022-08-10T06:36:55.512Z,2.40
2022-08-10T06:39:34.062Z,2.75
2022-08-10T06:42:22.305Z,2.58
2022-08-10T06:44:52.800Z,2.70
2022-08-10T06:47:23.175Z,2.97
2022-08-10T06:49:53.424Z,2.40
2022-08-10T06:52:28.239Z,2.88
2022-08-10T06:54:56.669Z,3.13
2022-08-10T06:57:24.909Z,2.45
2022-08-10T06:59:53.094Z,2.30
2022-08-10T07:02:31.200Z,2.92
2022-08-10T07:05:03.295Z,2.30
2022-08-10T07:07:32.030Z,3.13
2022-08-10T07:10:01.774Z,2.45
2022-08-10T07:12:30.122Z,2.67
2022-08-10T07:14:57.858Z,2.28
2022-08-10T07:17:26.529Z,2.63
2022-08-10T07:19:56.096Z,2.80
2022-08-10T07:23:50.721Z,2.50
2022-08-10T07:25:14.605Z,2.25
2022-08-10T07:27:59.914Z,2.55
2022-08-10T07:30:30.206Z,2.40
2022-08-10T07:32:58.101Z,2.15
2022-08-10T07:35:27.051Z,2.58
2022-08-10T07:37:55.061Z,2.30
2022-08-10T07:40:23.311Z,2.20
2022-08-10T07:42:53.137Z,2.53
2022-08-10T07:45:20.666Z,2.28
2022-08-10T07:48:02.458Z,2.63
2022-08-10T07:50:33.014Z,2.50
2022-08-10T07:53:04.458Z,2.47
2022-08-10T07:56:07.522Z,2.25
2022-08-10T07:58:23.278Z,2.00
2022-08-10T08:00:52.625Z,2.70
2022-08-10T08:03:28.774Z,2.70
2022-08-10T08:06:05.341Z,2.45
2022-08-10T08:08:39.128Z,2.70
2022-08-10T08:11:07.091Z,2.38
2022-08-10T08:13:34.891Z,2.40
2022-08-10T08:16:17.330Z,2.30
2022-08-10T08:19:03.904Z,2.58
2022-08-10T08:24:05.241Z,2.47
2022-08-10T08:24:32.806Z,2.40
2022-08-10T08:27:02.890Z,2.25
2022-08-10T08:29:31.156Z,2.05
2022-08-10T08:32:01.810Z,2.50
2022-08-10T08:34:32.451Z,2.33
2022-08-10T08:37:01.457Z,2.28
2022-08-10T08:39:29.336Z,2.85
2022-08-10T08:42:05.899Z,2.20
2022-08-10T08:45:01.230Z,1.85
2022-08-10T08:48:03.639Z,2.10
2022-08-10T08:50:53.958Z,2.00
2022-08-10T08:54:02.314Z,2.25
2022-08-10T08:56:50.524Z,2.17
2022-08-10T08:59:21.082Z,2.30
2022-08-10T09:02:07.030Z,2.60
2022-08-10T09:04:46.338Z,2.22
2022-08-10T09:07:59.312Z,2.13
2022-08-10T09:10:39.706Z,2.05
2022-08-10T09:13:29.597Z,2.47
2022-08-10T09:16:15.756Z,2.80
2022-08-10T09:18:49.019Z,2.05
2022-08-10T09:21:25.595Z,2.00
2022-08-10T09:24:05.429Z,2.30
2022-08-10T09:26:44.236Z,2.47
2022-08-10T09:29:14.679Z,2.28
2022-08-10T09:31:55.847Z,2.65
2022-08-10T09:36:21.264Z,2.20
2022-08-10T09:38:02.039Z,2.03
2022-08-10T09:40:59.695Z,2.47
2022-08-10T09:43:49.489Z,1.92
2022-08-10T09:46:27.190Z,2.15
2022-08-10T09:49:16.167Z,2.20
2022-08-10T09:51:47.953Z,2.30
2022-08-10T09:54:15.774Z,2.30
2022-08-10T09:56:46.161Z,2.17
2022-08-10T09:59:27.196Z,1.88
2022-08-10T10:02:16.320Z,2.25
2022-08-10T10:04:58.966Z,2.03
2022-08-10T10:07:30.092Z,2.13
2022-08-10T10:10:16.227Z,2.03
2022-08-10T10:12:54.723Z,2.13
2022-08-10T10:15:40.621Z,2.38
2022-08-10T10:18:26.713Z,2.00
2022-08-10T10:20:54.073Z,1.70
2022-08-10T10:23:40.202Z,2.50
2022-08-10T10:26:15.939Z,2.20
2022-08-10T10:29:30.871Z,2.05
2022-08-10T10:31:55.069Z,2.25
2022-08-10T10:34:28.676Z,2.20
2022-08-10T10:36:58.451Z,1.73
2022-08-10T10:39:26.749Z,1.80
2022-08-10T10:42:18.467Z,1.83
2022-08-10T10:45:07.380Z,2.15
2022-08-10T10:47:34.930Z,2.00
2022-08-10T10:50:05.265Z,2.28
2022-08-10T10:52:46.162Z,1.88
2022-08-10T10:55:17.148Z,2.40
2022-08-10T10:58:03.427Z,2.22
2022-08-10T11:00:35.960Z,2.20
2022-08-10T11:03:09.359Z,2.20
2022-08-10T11:05:36.667Z,2.03
2022-08-10T11:08:03.918Z,2.13
2022-08-10T11:10:49.906Z,1.80
2022-08-10T11:14:27.038Z,1.88
2022-08-10T11:16:25.747Z,1.65
2022-08-10T11:18:59.161Z,1.67
2022-08-10T11:21:41.114Z,1.73
2022-08-10T11:24:47.171Z,2.13
2022-08-10T11:27:01.944Z,1.70
2022-08-10T11:29:49.739Z,1.60
2022-08-10T11:32:25.468Z,1.45
2022-08-10T11:35:11.517Z,1.73
2022-08-10T11:38:31.843Z,1.50
2022-08-10T11:40:47.735Z,1.58
2022-08-10T11:43:24.176Z,1.70
2022-08-10T11:46:08.011Z,1.20
2022-08-10T11:48:53.318Z,1.50
2022-08-10T11:51:29.488Z,2.15
2022-08-10T11:54:04.905Z,1.95
2022-08-10T11:56:52.417Z,1.63
2022-08-10T11:59:40.926Z,1.80
2022-08-10T12:02:10.194Z,1.60
2022-08-10T12:04:40.181Z,1.30
2022-08-10T12:10:06.684Z,1.25
2022-08-10T12:10:10.644Z,1.70
2022-08-10T12:12:45.739Z,1.30
2022-08-10T12:15:34.170Z,1.55
2022-08-10T12:18:04.247Z,1.48
2022-08-10T12:20:36.556Z,1.30
2022-08-10T12:23:06.896Z,1.73
2022-08-10T12:25:56.721Z,1.58
2022-08-10T12:28:50.835Z,1.20
2022-08-10T12:31:39.613Z,1.33
2022-08-10T12:34:07.028Z,1.70
2022-08-10T12:36:55.408Z,1.40
2022-08-10T12:39:31.295Z,1.60
2022-08-10T12:42:06.706Z,1.27
2022-08-10T12:44:43.441Z,1.23
2022-08-10T12:47:36.975Z,1.52
2022-08-10T12:50:29.337Z,1.27
2022-08-10T12:53:06.332Z,1.60
2022-08-10T12:55:34.919Z,1.45
2022-08-10T12:58:06.656Z,1.40
2022-08-10T13:01:14.566Z,1.20
2022-08-10T13:04:21.006Z,1.40
2022-08-10T13:06:31.314Z,1.30
2022-08-10T13:09:16.780Z,1.63
2022-08-10T13:12:36.295Z,1.10
2022-08-10T13:14:55.974Z,1.23
2022-08-10T13:17:39.351Z,1.15
2022-08-10T13:20:14.337Z,1.23
2022-08-10T13:22:42.582Z,1.55
2022-08-10T13:25:11.116Z,1.30
2022-08-10T13:28:03.183Z,1.13
2022-08-10T13:30:33.458Z,1.35
2022-08-10T13:33:06.220Z,1.20
2022-08-10T13:35:34.782Z,1.35
2022-08-10T13:38:03.084Z,1.08
2022-08-10T13:40:31.270Z,1.30
2022-08-10T13:42:59.858Z,1.10
2022-08-10T13:45:28.734Z,0.90
2022-08-10T13:48:07.423Z,1.15
2022-08-10T13:50:37.546Z,1.02
2022-08-10T13:53:14.751Z,1.20
2022-08-10T13:55:55.426Z,1.20
2022-08-10T13:58:28.794Z,0.80
2022-08-10T14:00:57.272Z,1.10
2022-08-10T14:03:25.373Z,1.00
2022-08-10T14:05:54.128Z,0.93
2022-08-10T14:08:24.118Z,1.13
2022-08-10T14:11:07.910Z,1.30
2022-08-10T14:13:38.515Z,1.42
2022-08-10T14:16:07.156Z,1.38
2022-08-10T14:18:36.208Z,1.25
2022-08-10T14:21:04.931Z,1.10
2022-08-10T14:23:33.137Z,1.05
2022-08-10T14:26:06.558Z,1.20
2022-08-10T14:28:47.348Z,1.20
2022-08-10T14:31:21.163Z,0.98
2022-08-10T14:36:24.289Z,1.10
2022-08-10T14:38:54.062Z,1.13
2022-08-10T14:42:01.556Z,1.08
2022-08-10T14:44:22.410Z,0.82
2022-08-10T14:46:52.563Z,1.10
2022-08-10T14:49:26.349Z,0.98
2022-08-10T14:51:59.424Z,1.45
2022-08-10T14:54:29.491Z,1.10
2022-08-10T14:56:58.469Z,1.00
2022-08-10T15:00:08.580Z,1.17
2022-08-10T15:02:40.062Z,1.10
2022-08-10T15:05:09.043Z,0.85
2022-08-10T15:07:37.454Z,1.08
2022-08-10T15:10:06.575Z,1.02
2022-08-10T15:12:35.597Z,1.23
2022-08-10T15:15:04.862Z,1.25
2022-08-10T15:17:36.677Z,1.08
2022-08-10T15:20:13.680Z,1.00
2022-08-10T15:22:44.908Z,1.35
2022-08-10T15:25:18.290Z,0.80
2022-08-10T15:27:55.017Z,0.88
2022-08-10T15:30:30.472Z,0.95
2022-08-10T15:33:50.607Z,0.82
2022-08-10T15:36:28.698Z,0.70
2022-08-10T15:39:01.048Z,1.45
2022-08-10T15:41:58.834Z,1.10
2022-08-10T15:44:46.624Z,0.90
2022-08-10T15:47:16.919Z,1.05
2022-08-10T15:49:45.038Z,1.10
2022-08-10T15:52:40.112Z,0.98
2022-08-10T15:55:42.431Z,1.00
2022-08-10T15:58:03.209Z,0.90
2022-08-10T16:00:32.007Z,1.00
2022-08-10T16:03:07.836Z,1.20
2022-08-10T16:06:02.565Z,1.10
2022-08-10T16:08:50.158Z,1.00
2022-08-10T16:11:27.643Z,0.90
2022-08-10T16:14:16.094Z,1.10
2022-08-10T16:16:47.146Z,0.98
2022-08-10T16:19:24.884Z,0.95
2022-08-10T16:22:02.209Z,1.20
2022-08-10T16:24:34.984Z,1.15
2022-08-10T16:27:06.721Z,1.10
2022-08-10T16:29:56.397Z,1.40
2022-08-10T16:32:25.035Z,1.45
2022-08-10T16:34:53.021Z,5.10
2022-08-10T16:37:21.407Z,1.80
2022-08-10T16:40:01.167Z,1.25
2022-08-10T16:42:32.018Z,1.10
2022-08-10T16:45:04.707Z,0.90
2022-08-10T16:47:33.881Z,1.10
2022-08-10T16:50:02.079Z,0.90
2022-08-10T16:52:31.113Z,1.30
2022-08-10T16:55:09.567Z,1.00
2022-08-10T16:57:50.884Z,1.88
2022-08-10T17:00:33.687Z,1.50
2022-08-10T17:04:05.277Z,1.38
2022-08-10T17:06:05.855Z,1.05
2022-08-10T17:08:40.818Z,1.00
2022-08-10T17:11:17.231Z,2.08
2022-08-10T17:13:44.690Z,1.90
2022-08-10T17:16:12.957Z,1.17
2022-08-10T17:18:46.740Z,1.10
2022-08-10T17:21:22.597Z,1.48
2022-08-10T17:23:52.980Z,1.30
2022-08-10T17:26:37.467Z,1.08
2022-08-10T17:29:57.254Z,1.50
2022-08-10T17:32:20.246Z,1.05
2022-08-10T17:34:49.627Z,1.10
2022-08-10T17:37:18.514Z,1.42
2022-08-10T17:39:49.245Z,1.02
2022-08-10T17:42:21.816Z,1.20
2022-08-10T17:44:50.207Z,1.10
2022-08-10T17:47:17.918Z,0.98
2022-08-10T17:49:46.180Z,0.85
2022-08-10T17:52:19.528Z,1.27
2022-08-10T17:54:48.078Z,1.27
2022-08-10T17:57:21.217Z,1.13
2022-08-10T17:59:50.930Z,1.10
2022-08-10T18:02:20.202Z,2.45
2022-08-10T18:05:14.131Z,1.00
2022-08-10T18:07:45.320Z,1.30
2022-08-10T18:10:15.354Z,1.20
2022-08-10T18:12:50.699Z,1.08
2022-08-10T18:15:22.286Z,1.10
2022-08-10T18:17:58.389Z,1.02
2022-08-10T18:20:31.836Z,1.13
2022-08-10T18:23:00.129Z,1.10
2022-08-10T18:25:33.738Z,1.20
2022-08-10T18:28:05.064Z,1.08
2022-08-10T18:30:36.843Z,1.20
2022-08-10T18:33:05.110Z,1.20
2022-08-10T18:35:34.793Z,1.25
2022-08-10T18:38:02.884Z,1.05
2022-08-10T18:40:35.591Z,1.30
2022-08-10T18:43:09.988Z,1.63
2022-08-10T18:45:53.241Z,1.45
2022-08-10T18:48:22.835Z,3.55
2022-08-10T18:50:54.261Z,1.50
2022-08-10T18:53:22.546Z,1.17
2022-08-10T18:56:09.520Z,1.13
2022-08-10T18:58:47.440Z,1.20
2022-08-10T19:01:33.644Z,0.85
2022-08-10T19:04:14.778Z,1.40
2022-08-10T19:06:42.081Z,1.20
2022-08-10T19:09:41.423Z,1.20
2022-08-10T19:12:32.307Z,1.10
2022-08-10T19:15:08.669Z,1.50
2022-08-10T19:18:02.906Z,1.25
2022-08-10T19:20:52.793Z,1.20
2022-08-10T19:23:40.597Z,1.40
2022-08-10T19:26:44.295Z,1.40
2022-08-10T19:29:13.884Z,1.40
2022-08-10T19:32:15.186Z,1.23
2022-08-10T19:34:53.692Z,1.45
2022-08-10T19:37:34.345Z,1.58
2022-08-10T19:40:01.893Z,1.38
2022-08-10T19:42:33.493Z,1.20
2022-08-10T19:46:00.915Z,1.30
2022-08-10T19:48:12.696Z,1.60
2022-08-10T19:51:15.516Z,1.40
2022-08-10T19:53:50.396Z,1.20
2022-08-10T19:59:08.694Z,1.60
2022-08-10T20:01:55.865Z,1.30
2022-08-10T20:04:27.761Z,1.23
2022-08-10T20:07:13.224Z,1.20
2022-08-10T20:10:00.138Z,1.35
2022-08-10T20:12:40.037Z,1.20
2022-08-10T20:15:13.045Z,1.23
2022-08-10T20:17:52.801Z,1.38
2022-08-10T20:20:31.216Z,1.38
2022-08-10T20:23:18.859Z,1.15
2022-08-10T20:25:56.656Z,1.40
2022-08-10T20:28:30.624Z,1.73
2022-08-10T20:31:03.585Z,1.42
2022-08-10T20:33:35.345Z,1.70
2022-08-10T20:36:10.327Z,1.17
2022-08-10T20:41:05.073Z,1.42
2022-08-10T20:43:35.530Z,1.50
2022-08-10T20:46:14.832Z,1.20
2022-08-10T20:48:46.956Z,1.40
2022-08-10T20:51:15.629Z,1.33
2022-08-10T20:53:45.793Z,1.33
2022-08-10T20:56:36.948Z,1.40
2022-08-10T20:59:09.024Z,1.40
2022-08-10T21:02:06.626Z,1.50
2022-08-10T21:04:52.809Z,1.60
2022-08-10T21:08:00.499Z,1.75
2022-08-10T21:10:38.799Z,1.50
2022-08-10T21:13:16.183Z,1.50
2022-08-10T21:16:04.402Z,1.40
2022-08-10T21:18:52.944Z,1.20
2022-08-10T21:21:41.965Z,1.55
2022-08-10T21:24:12.933Z,1.75
2022-08-10T21:26:55.603Z,1.60
2022-08-10T21:29:39.954Z,1.73
2022-08-10T21:32:12.390Z,1.67
2022-08-10T21:34:58.215Z,1.30
2022-08-10T21:37:41.685Z,1.30
2022-08-10T21:40:34.480Z,1.40
2022-08-10T21:43:17.801Z,1.40
2022-08-10T21:46:18.188Z,1.13
2022-08-10T21:49:07.976Z,1.27
2022-08-10T21:52:04.047Z,1.30
2022-08-10T21:54:54.100Z,1.20
2022-08-10T21:57:45.258Z,1.90
2022-08-10T22:00:33.535Z,1.23
2022-08-10T22:03:20.607Z,1.42
2022-08-10T22:06:08.201Z,1.40
2022-08-10T22:09:09.014Z,1.33
2022-08-10T22:11:58.567Z,1.40
2022-08-10T22:14:49.110Z,1.30
2022-08-10T22:18:00.793Z,1.63
2022-08-10T22:20:41.633Z,1.40
2022-08-10T22:23:46.612Z,1.40
2022-08-10T22:26:37.138Z,1.58
2022-08-10T22:29:26.754Z,1.42
2022-08-10T22:32:28.895Z,1.50
2022-08-10T22:35:17.860Z,1.55
2022-08-10T22:38:16.115Z,1.30
2022-08-10T22:41:05.542Z,1.40
2022-08-10T22:43:53.394Z,1.35
2022-08-10T22:46:41.580Z,1.50
2022-08-10T22:49:09.012Z,1.38
2022-08-10T22:51:54.461Z,1.35
2022-08-10T22:54:43.251Z,1.15
2022-08-10T22:57:33.673Z,1.50
2022-08-10T23:00:10.189Z,1.58
2022-08-10T23:02:38.475Z,1.30
2022-08-10T23:05:12.417Z,1.23
2022-08-10T23:07:50.759Z,1.75
2022-08-10T23:10:19.724Z,1.50
2022-08-10T23:12:46.986Z,1.55
2022-08-10T23:15:46.054Z,1.30
2022-08-10T23:18:34.200Z,1.30
2022-08-10T23:21:02.075Z,1.60
2022-08-10T23:23:32.324Z,1.50
2022-08-10T23:26:00.898Z,1.60
2022-08-10T23:28:38.741Z,1.13
2022-08-10T23:31:50.265Z,1.30
2022-08-10T23:34:05.687Z,1.45
2022-08-10T23:36:35.657Z,1.60
2022-08-10T23:39:25.660Z,1.40
2022-08-10T23:41:55.539Z,1.30
2022-08-10T23:44:23.582Z,1.42
2022-08-10T23:46:52.297Z,1.23
2022-08-10T23:49:20.770Z,1.58
2022-08-10T23:51:55.597Z,1.20
2022-08-10T23:54:24.757Z,1.33
2022-08-10T23:56:53.914Z,1.27
2022-08-10T23:59:22.570Z,1.90
